createdAt,value
2018-05-27T00:00:16.035Z,20.70
2018-05-27T00:02:43.742Z,20.60
2018-05-27T00:05:11.269Z,20.70
2018-05-27T00:07:38.754Z,20.70
2018-05-27T00:10:07.000Z,20.60
2018-05-27T00:12:34.485Z,20.60
2018-05-27T00:15:02.717Z,20.50
2018-05-27T00:17:30.733Z,20.50
2018-05-27T00:19:58.973Z,20.50
2018-05-27T00:22:26.445Z,20.50
2018-05-27T00:24:53.929Z,20.50
2018-05-27T00:27:21.429Z,20.50
2018-05-27T00:29:48.916Z,20.40
2018-05-27T00:32:16.386Z,20.40
2018-05-27T00:34:44.652Z,20.50
2018-05-27T00:37:12.900Z,20.40
2018-05-27T00:39:40.515Z,20.40
2018-05-27T00:42:08.013Z,20.40
2018-05-27T00:44:35.871Z,20.40
2018-05-27T00:47:03.357Z,20.40
2018-05-27T00:49:30.974Z,20.40
2018-05-27T00:51:58.463Z,20.40
2018-05-27T00:54:25.937Z,20.30
2018-05-27T00:56:54.169Z,20.20
2018-05-27T00:59:21.694Z,20.30
2018-05-27T01:01:49.166Z,20.30
2018-05-27T01:04:16.664Z,20.40
2018-05-27T01:06:44.133Z,20.40
2018-05-27T01:09:12.389Z,20.30
2018-05-27T01:11:39.912Z,20.30
2018-05-27T01:14:07.384Z,20.20
2018-05-27T01:16:34.877Z,20.20
2018-05-27T01:19:03.117Z,20.20
2018-05-27T01:21:30.657Z,20.10
2018-05-27T01:23:58.133Z,20.20
2018-05-27T01:26:25.621Z,20.20
2018-05-27T01:28:53.893Z,20.20
2018-05-27T01:31:22.149Z,20.10
2018-05-27T01:33:49.634Z,20.10
2018-05-27T01:36:17.881Z,20.10
2018-05-27T01:38:45.365Z,20.00
2018-05-27T01:41:13.601Z,20.00
2018-05-27T01:43:41.573Z,20.00
2018-05-27T01:46:09.045Z,20.00
2018-05-27T01:48:36.561Z,20.00
2018-05-27T01:51:04.049Z,20.00
2018-05-27T01:53:31.558Z,19.90
2018-05-27T01:55:59.025Z,19.90
2018-05-27T01:58:26.576Z,19.90
2018-05-27T02:00:54.079Z,19.90
2018-05-27T02:03:21.550Z,19.90
2018-05-27T02:05:49.806Z,19.90
2018-05-27T02:08:17.277Z,19.90
2018-05-27T02:10:45.529Z,19.90
2018-05-27T02:13:13.006Z,19.80
2018-05-27T02:15:41.265Z,19.90
2018-05-27T02:18:08.737Z,19.90
2018-05-27T02:20:36.978Z,19.90
2018-05-27T02:23:04.466Z,19.80
2018-05-27T02:25:32.709Z,19.80
2018-05-27T02:28:00.203Z,19.80
2018-05-27T02:30:28.443Z,19.70
2018-05-27T02:32:55.967Z,19.70
2018-05-27T02:35:23.441Z,19.70
2018-05-27T02:37:50.937Z,19.70
2018-05-27T02:40:19.181Z,19.70
2018-05-27T02:42:46.650Z,19.60
2018-05-27T02:45:14.433Z,19.60
2018-05-27T02:47:42.670Z,19.60
2018-05-27T02:50:10.161Z,19.60
2018-05-27T02:52:38.397Z,19.60
2018-05-27T02:55:05.889Z,19.60
2018-05-27T02:57:34.136Z,19.60
2018-05-27T03:00:01.608Z,19.60
2018-05-27T03:02:29.093Z,19.60
2018-05-27T03:04:57.329Z,19.60
2018-05-27T03:07:24.813Z,19.60
2018-05-27T03:09:53.053Z,19.60
2018-05-27T03:12:20.550Z,19.60
2018-05-27T03:14:48.785Z,19.60
2018-05-27T03:17:16.273Z,19.60
2018-05-27T03:19:44.513Z,19.60
2018-05-27T03:22:11.981Z,19.60
2018-05-27T03:24:39.465Z,19.60
2018-05-27T03:27:07.709Z,19.60
2018-05-27T03:29:35.202Z,19.50
2018-05-27T03:32:03.438Z,19.60
2018-05-27T03:34:30.922Z,19.60
2018-05-27T03:36:59.158Z,19.50
2018-05-27T03:39:26.641Z,19.50
2018-05-27T03:41:54.885Z,19.50
2018-05-27T03:44:22.373Z,19.40
2018-05-27T03:46:50.623Z,19.50
2018-05-27T03:49:18.101Z,19.40
2018-05-27T03:51:46.359Z,19.40
2018-05-27T03:54:13.829Z,19.40
2018-05-27T03:56:41.319Z,19.40
2018-05-27T03:59:09.669Z,19.40
2018-05-27T04:01:37.933Z,19.40
2018-05-27T04:04:17.077Z,19.40
2018-05-27T04:06:57.173Z,19.40
2018-05-27T04:09:24.645Z,19.30
2018-05-27T04:11:52.117Z,19.40
2018-05-27T04:14:19.606Z,19.30
2018-05-27T04:16:47.861Z,19.40
2018-05-27T04:19:16.126Z,19.40
2018-05-27T04:21:43.594Z,19.50
2018-05-27T04:24:11.860Z,19.40
2018-05-27T04:26:39.330Z,19.50
2018-05-27T04:29:07.589Z,19.50
2018-05-27T04:31:35.054Z,19.40
2018-05-27T04:34:03.298Z,19.60
2018-05-27T04:36:30.814Z,19.50
2018-05-27T04:38:59.037Z,19.60
2018-05-27T04:41:26.521Z,19.60
2018-05-27T04:43:54.761Z,19.80
2018-05-27T04:46:22.244Z,19.80
2018-05-27T04:48:50.481Z,20.00
2018-05-27T04:51:17.970Z,19.90
2018-05-27T04:53:45.438Z,20.00
2018-05-27T04:56:13.674Z,20.40
2018-05-27T04:58:41.154Z,20.30
2018-05-27T05:01:08.620Z,20.40
2018-05-27T05:03:36.873Z,20.70
2018-05-27T05:06:04.345Z,20.70
2018-05-27T05:08:32.599Z,20.90
2018-05-27T05:11:00.065Z,20.90
2018-05-27T05:13:27.566Z,21.00
2018-05-27T05:15:55.033Z,21.10
2018-05-27T05:18:22.506Z,21.30
2018-05-27T05:20:50.004Z,21.40
2018-05-27T05:23:18.256Z,21.30
2018-05-27T05:25:45.737Z,21.30
2018-05-27T05:28:13.991Z,21.20
2018-05-27T05:30:41.476Z,21.20
2018-05-27T05:33:09.710Z,21.30
2018-05-27T05:35:37.199Z,21.30
2018-05-27T05:38:05.433Z,22.90
2018-05-27T05:40:32.909Z,22.90
2018-05-27T05:43:00.394Z,23.60
2018-05-27T05:45:27.868Z,23.80
2018-05-27T05:47:55.353Z,24.00
2018-05-27T05:50:22.821Z,24.40
2018-05-27T05:52:50.305Z,25.00
2018-05-27T05:55:18.531Z,24.50
2018-05-27T05:57:46.807Z,24.50
2018-05-27T06:00:14.276Z,24.50
2018-05-27T06:02:41.749Z,24.50
2018-05-27T06:05:09.234Z,24.00
2018-05-27T06:07:36.713Z,23.90
2018-05-27T06:10:04.197Z,23.80
2018-05-27T06:12:31.673Z,23.50
2018-05-27T06:14:59.153Z,23.20
2018-05-27T06:17:27.385Z,23.40
2018-05-27T06:19:54.865Z,23.40
2018-05-27T06:22:23.101Z,25.10
2018-05-27T06:24:50.570Z,25.10
2018-05-27T06:27:18.049Z,26.80
2018-05-27T06:29:46.290Z,26.10
2018-05-27T06:32:13.781Z,26.10
2018-05-27T06:34:42.022Z,25.20
2018-05-27T06:37:09.501Z,25.10
2018-05-27T06:39:36.965Z,25.20
2018-05-27T06:42:05.244Z,25.00
2018-05-27T06:44:33.485Z,24.80
2018-05-27T06:47:00.954Z,24.70
2018-05-27T06:49:28.452Z,24.60
2018-05-27T06:51:55.921Z,24.40
2018-05-27T06:54:23.409Z,24.50
2018-05-27T06:56:50.874Z,24.70
2018-05-27T06:59:18.362Z,24.60
2018-05-27T07:01:46.592Z,25.50
2018-05-27T07:04:15.205Z,25.60
2018-05-27T07:06:42.669Z,25.50
2018-05-27T07:09:11.197Z,25.20
2018-05-27T07:11:38.708Z,25.20
2018-05-27T07:14:06.937Z,25.70
2018-05-27T07:16:34.422Z,25.70
2018-05-27T07:19:02.669Z,29.30
2018-05-27T07:21:30.153Z,29.20
2018-05-27T07:23:57.629Z,31.10
2018-05-27T07:26:26.194Z,32.60
2018-05-27T07:28:53.656Z,32.50
2018-05-27T07:31:21.891Z,33.60
2018-05-27T07:33:49.373Z,33.50
2018-05-27T07:36:16.841Z,32.80
2018-05-27T07:38:45.089Z,30.60
2018-05-27T07:41:12.557Z,30.50
2018-05-27T07:43:40.037Z,28.70
2018-05-27T07:46:07.505Z,28.10
2018-05-27T07:48:34.993Z,28.50
2018-05-27T07:51:02.530Z,28.90
2018-05-27T07:53:30.298Z,29.20
2018-05-27T07:55:57.761Z,29.70
2018-05-27T07:58:25.331Z,30.10
2018-05-27T08:00:52.741Z,31.20
2018-05-27T08:03:20.206Z,32.10
2018-05-27T08:05:47.696Z,32.10
2018-05-27T08:08:15.176Z,32.70
2018-05-27T08:10:42.705Z,32.80
2018-05-27T08:13:10.177Z,32.20
2018-05-27T08:15:37.645Z,32.00
2018-05-27T08:18:05.133Z,31.30
2018-05-27T08:20:32.603Z,31.00
2018-05-27T08:23:00.092Z,31.10
2018-05-27T08:25:27.561Z,31.70
2018-05-27T08:27:55.049Z,31.70
2018-05-27T08:30:23.290Z,30.90
2018-05-27T08:32:50.757Z,30.90
2018-05-27T08:35:18.236Z,30.50
2018-05-27T09:01:06.015Z,31.70
2018-05-27T09:03:33.488Z,31.80
2018-05-27T09:06:00.966Z,32.70
2018-05-27T09:08:28.457Z,34.00
2018-05-27T09:10:55.925Z,34.20
2018-05-27T09:13:24.464Z,34.30
2018-05-27T09:15:51.941Z,34.30
2018-05-27T09:25:47.034Z,34.70
2018-05-27T09:28:14.514Z,36.20
2018-05-27T09:30:41.997Z,36.60
2018-05-27T09:33:09.461Z,36.10
2018-05-27T10:47:32.962Z,32.00
2018-05-27T10:50:01.194Z,29.60
2018-05-27T10:52:28.668Z,29.60
2018-05-27T10:54:56.138Z,29.50
2018-05-27T10:57:24.396Z,29.20
2018-05-27T10:59:51.864Z,29.20
2018-05-27T11:02:20.131Z,28.70
2018-05-27T11:04:47.597Z,28.70
2018-05-27T11:07:15.066Z,28.60
2018-05-27T11:09:43.314Z,28.00
2018-05-27T11:12:10.828Z,27.90
2018-05-27T11:14:39.049Z,27.50
2018-05-27T11:17:06.525Z,27.50
2018-05-27T11:19:34.773Z,27.20
2018-05-27T11:24:31.886Z,26.30
2018-05-27T11:27:00.094Z,26.30
2018-05-27T11:29:27.569Z,26.00
2018-05-27T11:31:55.084Z,25.80
2018-05-27T11:34:22.557Z,25.90
2018-05-27T11:36:50.061Z,25.70
2018-05-27T11:39:18.312Z,25.90
2018-05-27T11:41:45.793Z,25.80
2018-05-27T11:44:14.023Z,25.70
2018-05-27T11:46:41.506Z,25.70
2018-05-27T11:49:08.973Z,25.70
2018-05-27T11:51:37.208Z,25.70
2018-05-27T11:54:04.753Z,25.60
2018-05-27T11:56:32.239Z,25.70
2018-05-27T11:58:59.721Z,25.80
2018-05-27T12:01:27.954Z,25.50
2018-05-27T12:03:55.457Z,25.40
2018-05-27T12:06:23.705Z,25.20
2018-05-27T12:08:51.174Z,25.20
2018-05-27T12:11:19.429Z,24.90
2018-05-27T12:13:46.897Z,24.90
2018-05-27T12:16:14.380Z,24.80
2018-05-27T12:18:41.850Z,24.60
2018-05-27T12:21:09.341Z,24.50
2018-05-27T12:23:36.817Z,24.40
2018-05-27T12:26:04.356Z,24.40
2018-05-27T12:28:31.824Z,24.30
2018-05-27T12:30:59.298Z,24.20
2018-05-27T12:33:27.554Z,23.70
2018-05-27T12:35:55.029Z,23.70
2018-05-27T12:38:23.285Z,23.50
2018-05-27T12:40:50.761Z,23.50
2018-05-27T12:43:19.009Z,24.00
2018-05-27T12:45:46.479Z,23.90
2018-05-27T12:48:13.961Z,24.10
2018-05-27T12:50:42.197Z,24.60
2018-05-27T12:53:09.665Z,24.50
2018-05-27T12:55:37.147Z,24.90
2018-05-27T12:58:05.381Z,25.50
2018-05-27T13:00:32.866Z,25.50
2018-05-27T13:03:01.106Z,25.70
2018-05-27T13:05:28.590Z,25.70
2018-05-27T13:07:56.094Z,25.80
2018-05-27T13:10:23.576Z,26.10
2018-05-27T13:12:51.044Z,26.20
2018-05-27T13:15:18.523Z,26.40
2018-05-27T13:17:46.781Z,26.90
2018-05-27T13:20:14.258Z,26.90
2018-05-27T13:22:42.509Z,27.70
2018-05-27T13:25:09.976Z,27.60
2018-05-27T13:27:38.230Z,28.80
2018-05-27T13:30:05.777Z,28.70
2018-05-27T13:32:33.449Z,29.30
2018-05-27T13:35:00.925Z,29.60
2018-05-27T13:37:29.165Z,29.90
2018-05-27T13:39:56.649Z,29.90
2018-05-27T13:42:24.120Z,30.20
2018-05-27T13:44:52.373Z,30.70
2018-05-27T13:47:19.841Z,30.70
2018-05-27T13:49:48.090Z,31.00
2018-05-27T13:52:15.565Z,31.00
2018-05-27T13:54:43.821Z,31.30
2018-05-27T13:57:11.292Z,31.30
2018-05-27T13:59:38.766Z,31.50
2018-05-27T14:02:07.025Z,30.90
2018-05-27T14:04:35.273Z,30.80
2018-05-27T14:07:02.763Z,30.80
2018-05-27T14:09:30.997Z,30.80
2018-05-27T14:11:58.476Z,30.80
2018-05-27T14:14:25.950Z,31.10
2018-05-27T14:16:54.205Z,30.90
2018-05-27T14:19:21.677Z,30.80
2018-05-27T14:21:49.905Z,30.90
2018-05-27T14:24:17.432Z,30.90
2018-05-27T14:26:45.645Z,30.90
2018-05-27T14:29:13.125Z,30.80
2018-05-27T14:31:40.592Z,31.00
2018-05-27T14:34:08.842Z,30.90
2018-05-27T14:36:36.318Z,30.90
2018-05-27T14:39:05.242Z,30.20
2018-05-27T14:41:32.725Z,30.20
2018-05-27T14:44:00.200Z,29.80
2018-05-27T14:46:27.686Z,29.70
2018-05-27T14:48:55.916Z,29.70
2018-05-27T14:51:23.403Z,29.70
2018-05-27T14:53:51.653Z,29.50
2018-05-27T14:56:19.479Z,29.50
2018-05-27T14:58:46.953Z,29.30
2018-05-27T15:01:14.445Z,29.30
2018-05-27T15:03:42.787Z,29.70
2018-05-27T15:06:10.258Z,29.90
2018-05-27T15:08:37.749Z,30.10
2018-05-27T15:11:05.981Z,29.70
2018-05-27T15:13:33.468Z,29.70
2018-05-27T15:16:01.713Z,29.30
2018-05-27T15:18:29.202Z,29.30
2018-05-27T15:20:57.444Z,28.80
2018-05-27T15:23:24.941Z,28.70
2018-05-27T15:25:53.177Z,28.30
2018-05-27T15:28:20.651Z,28.20
2018-05-27T15:30:48.134Z,27.80
2018-05-27T15:33:16.377Z,27.50
2018-05-27T15:35:43.861Z,27.50
2018-05-27T15:38:12.098Z,27.30
2018-05-27T15:40:39.578Z,27.30
2018-05-27T15:43:07.813Z,27.00
2018-05-27T15:45:35.305Z,27.00
2018-05-27T15:48:03.541Z,26.90
2018-05-27T15:50:31.017Z,26.80
2018-05-27T15:52:58.515Z,26.90
2018-05-27T15:55:25.987Z,27.00
2018-05-27T15:57:53.475Z,26.90
2018-05-27T16:00:20.949Z,26.80
2018-05-27T16:02:48.428Z,26.80
2018-05-27T16:05:16.669Z,26.70
2018-05-27T16:07:44.173Z,26.70
2018-05-27T16:10:11.639Z,26.70
2018-05-27T16:12:39.112Z,26.70
2018-05-27T16:15:06.604Z,26.70
2018-05-27T16:17:34.077Z,26.60
2018-05-27T16:20:02.353Z,26.40
2018-05-27T16:22:29.804Z,26.40
2018-05-27T16:24:58.057Z,26.40
2018-05-27T16:27:25.533Z,26.40
2018-05-27T16:29:53.806Z,26.40
2018-05-27T16:32:22.063Z,26.40
2018-05-27T16:34:49.525Z,26.40
2018-05-27T16:37:17.026Z,26.40
2018-05-27T16:39:44.499Z,26.30
2018-05-27T16:42:11.991Z,26.20
2018-05-27T16:44:39.469Z,26.20
2018-05-27T16:47:06.960Z,26.10
2018-05-27T16:49:34.424Z,26.10
2018-05-27T16:52:01.949Z,26.10
2018-05-27T16:54:30.165Z,26.20
2018-05-27T16:56:57.637Z,26.20
2018-05-27T16:59:25.125Z,26.20
2018-05-27T17:01:53.358Z,26.10
2018-05-27T17:04:20.837Z,26.10
2018-05-27T17:06:48.305Z,26.00
2018-05-27T17:09:16.557Z,25.80
2018-05-27T17:11:44.025Z,25.70
2018-05-27T17:14:11.583Z,25.70
2018-05-27T17:16:39.038Z,25.50
2018-05-27T17:19:07.277Z,25.40
2018-05-27T17:21:34.773Z,25.40
2018-05-27T17:24:03.005Z,25.20
2018-05-27T17:26:30.489Z,25.20
2018-05-27T17:28:57.961Z,25.20
2018-05-27T17:31:26.217Z,25.30
2018-05-27T17:33:53.689Z,25.30
2018-05-27T17:36:22.269Z,25.20
2018-05-27T17:38:50.505Z,25.10
2018-05-27T17:41:17.978Z,25.10
2018-05-27T17:43:45.465Z,25.10
2018-05-27T17:46:13.704Z,24.90
2018-05-27T17:48:41.188Z,24.90
2018-05-27T17:51:09.421Z,24.70
2018-05-27T17:53:37.685Z,24.70
2018-05-27T17:56:05.157Z,24.70
2018-05-27T17:58:32.645Z,24.60
2018-05-27T18:01:00.881Z,24.40
2018-05-27T18:03:28.349Z,24.40
2018-05-27T18:05:55.832Z,24.40
2018-05-27T18:08:24.077Z,24.30
2018-05-27T18:10:51.560Z,24.30
2018-05-27T18:13:19.796Z,24.20
2018-05-27T18:15:47.286Z,24.10
2018-05-27T18:18:14.758Z,24.10
2018-05-27T18:20:43.014Z,23.80
2018-05-27T18:23:10.485Z,23.80
2018-05-27T18:25:38.717Z,23.40
2018-05-27T18:28:06.969Z,23.20
2018-05-27T18:30:34.443Z,23.10
2018-05-27T18:33:01.928Z,23.00
2018-05-27T18:35:29.396Z,23.00
2018-05-27T18:37:57.653Z,22.80
2018-05-27T18:40:25.125Z,22.80
2018-05-27T18:42:53.379Z,22.80
2018-05-27T18:45:20.852Z,22.80
2018-05-27T18:47:49.085Z,22.90
2018-05-27T18:50:16.573Z,22.90
2018-05-27T18:52:44.051Z,22.80
2018-05-27T18:55:12.309Z,22.60
2018-05-27T18:57:40.557Z,22.50
2018-05-27T19:00:08.038Z,22.40
2018-05-27T19:02:36.276Z,21.90
2018-05-27T19:05:03.762Z,21.80
